sensor_id;sensor_type;location;lat;lon;timestamp;P1;durP1;ratioP1;P2;durP2;ratioP2
20232;SDS011;37438;55.674;13.074;2023-03-21T00:01:13;10.25;;;3.65;;
20232;SDS011;37438;55.674;13.074;2023-03-21T00:04:18;8.68;;;4.05;;
20232;SDS011;37438;55.674;13.074;2023-03-21T00:07:23;6.15;;;3.00;;
20232;SDS011;37438;55.674;13.074;2023-03-21T00:10:27;8.83;;;3.70;;
20232;SDS011;37438;55.674;13.074;2023-03-21T00:13:46;7.22;;;3.63;;
20232;SDS011;37438;55.674;13.074;2023-03-21T00:16:51;11.07;;;3.63;;
20232;SDS011;37438;55.674;13.074;2023-03-21T00:20:00;8.93;;;2.80;;
20232;SDS011;37438;55.674;13.074;2023-03-21T00:23:10;7.13;;;3.17;;
20232;SDS011;37438;55.674;13.074;2023-03-21T00:26:14;8.48;;;3.35;;
20232;SDS011;37438;55.674;13.074;2023-03-21T00:29:20;8.65;;;2.90;;
20232;SDS011;37438;55.674;13.074;2023-03-21T00:32:24;11.60;;;2.70;;
20232;SDS011;37438;55.674;13.074;2023-03-21T00:35:29;9.30;;;3.28;;
20232;SDS011;37438;55.674;13.074;2023-03-21T00:38:54;9.82;;;4.57;;
20232;SDS011;37438;55.674;13.074;2023-03-21T00:41:58;14.77;;;6.13;;
20232;SDS011;37438;55.674;13.074;2023-03-21T00:45:03;13.98;;;6.82;;
20232;SDS011;37438;55.674;13.074;2023-03-21T00:48:09;20.10;;;6.72;;
20232;SDS011;37438;55.674;13.074;2023-03-21T00:51:17;17.67;;;7.63;;
20232;SDS011;37438;55.674;13.074;2023-03-21T00:54:29;13.52;;;6.60;;
20232;SDS011;37438;55.674;13.074;2023-03-21T00:57:33;13.73;;;5.03;;
20232;SDS011;37438;55.674;13.074;2023-03-21T01:00:42;12.98;;;4.75;;
20232;SDS011;37438;55.674;13.074;2023-03-21T01:03:49;18.35;;;4.65;;
20232;SDS011;37438;55.674;13.074;2023-03-21T01:07:08;21.25;;;5.03;;
20232;SDS011;37438;55.674;13.074;2023-03-21T01:10:14;11.30;;;4.85;;
20232;SDS011;37438;55.674;13.074;2023-03-21T01:13:19;9.85;;;3.95;;
20232;SDS011;37438;55.674;13.074;2023-03-21T01:16:26;16.92;;;4.22;;
20232;SDS011;37438;55.674;13.074;2023-03-21T01:19:31;10.43;;;3.85;;
20232;SDS011;37438;55.674;13.074;2023-03-21T01:22:54;12.98;;;3.78;;
20232;SDS011;37438;55.674;13.074;2023-03-21T01:25:58;10.43;;;3.63;;
20232;SDS011;37438;55.674;13.074;2023-03-21T01:29:03;9.10;;;2.90;;
20232;SDS011;37438;55.674;13.074;2023-03-21T01:32:08;12.38;;;3.60;;
20232;SDS011;37438;55.674;13.074;2023-03-21T01:35:13;9.93;;;2.55;;
20232;SDS011;37438;55.674;13.074;2023-03-21T01:38:17;12.37;;;3.10;;
20232;SDS011;37438;55.674;13.074;2023-03-21T01:41:26;16.17;;;3.47;;
20232;SDS011;37438;55.674;13.074;2023-03-21T01:44:57;9.45;;;3.63;;
20232;SDS011;37438;55.674;13.074;2023-03-21T01:48:19;11.77;;;2.88;;
20232;SDS011;37438;55.674;13.074;2023-03-21T01:51:28;9.52;;;3.17;;
20232;SDS011;37438;55.674;13.074;2023-03-21T01:54:38;11.00;;;3.20;;
20232;SDS011;37438;55.674;13.074;2023-03-21T01:57:45;10.18;;;3.75;;
20232;SDS011;37438;55.674;13.074;2023-03-21T02:01:15;10.73;;;3.40;;
20232;SDS011;37438;55.674;13.074;2023-03-21T02:04:24;19.98;;;4.82;;
20232;SDS011;37438;55.674;13.074;2023-03-21T02:07:47;10.43;;;3.97;;
20232;SDS011;37438;55.674;13.074;2023-03-21T02:10:54;10.70;;;3.97;;
20232;SDS011;37438;55.674;13.074;2023-03-21T02:14:11;10.93;;;3.85;;
20232;SDS011;37438;55.674;13.074;2023-03-21T02:17:44;6.40;;;3.42;;
20232;SDS011;37438;55.674;13.074;2023-03-21T02:28:23;11.75;;;3.45;;
20232;SDS011;37438;55.674;13.074;2023-03-21T02:31:33;17.27;;;5.55;;
20232;SDS011;37438;55.674;13.074;2023-03-21T02:38:21;13.80;;;5.85;;
20232;SDS011;37438;55.674;13.074;2023-03-21T02:42:04;8.93;;;4.43;;
20232;SDS011;37438;55.674;13.074;2023-03-21T02:45:15;10.48;;;4.53;;
20232;SDS011;37438;55.674;13.074;2023-03-21T02:48:32;18.08;;;6.50;;
20232;SDS011;37438;55.674;13.074;2023-03-21T02:51:53;14.32;;;6.50;;
20232;SDS011;37438;55.674;13.074;2023-03-21T02:55:23;17.52;;;7.32;;
20232;SDS011;37438;55.674;13.074;2023-03-21T02:58:37;15.43;;;6.53;;
20232;SDS011;37438;55.674;13.074;2023-03-21T03:01:44;15.38;;;8.23;;
20232;SDS011;37438;55.674;13.074;2023-03-21T03:04:48;12.77;;;6.88;;
20232;SDS011;37438;55.674;13.074;2023-03-21T03:08:15;19.50;;;7.95;;
20232;SDS011;37438;55.674;13.074;2023-03-21T03:11:50;20.23;;;8.88;;
20232;SDS011;37438;55.674;13.074;2023-03-21T03:16:09;22.00;;;8.98;;
20232;SDS011;37438;55.674;13.074;2023-03-21T03:19:09;19.73;;;9.60;;
20232;SDS011;37438;55.674;13.074;2023-03-21T03:22:44;25.80;;;9.52;;
20232;SDS011;37438;55.674;13.074;2023-03-21T03:26:07;23.40;;;10.27;;
20232;SDS011;37438;55.674;13.074;2023-03-21T03:29:18;25.85;;;9.30;;
20232;SDS011;37438;55.674;13.074;2023-03-21T03:32:44;22.50;;;8.50;;
20232;SDS011;37438;55.674;13.074;2023-03-21T03:35:53;38.63;;;8.77;;
20232;SDS011;37438;55.674;13.074;2023-03-21T03:39:11;22.95;;;9.07;;
20232;SDS011;37438;55.674;13.074;2023-03-21T03:42:26;28.25;;;9.20;;
20232;SDS011;37438;55.674;13.074;2023-03-21T03:45:46;17.88;;;8.95;;
20232;SDS011;37438;55.674;13.074;2023-03-21T03:48:54;20.63;;;8.93;;
20232;SDS011;37438;55.674;13.074;2023-03-21T03:52:48;18.55;;;10.05;;
20232;SDS011;37438;55.674;13.074;2023-03-21T03:55:41;20.35;;;9.35;;
20232;SDS011;37438;55.674;13.074;2023-03-21T03:58:49;23.27;;;9.10;;
20232;SDS011;37438;55.674;13.074;2023-03-21T04:01:58;128.00;;;11.65;;
20232;SDS011;37438;55.674;13.074;2023-03-21T04:05:03;23.30;;;9.07;;
20232;SDS011;37438;55.674;13.074;2023-03-21T04:08:08;26.70;;;8.57;;
20232;SDS011;37438;55.674;13.074;2023-03-21T04:11:18;30.65;;;9.20;;
20232;SDS011;37438;55.674;13.074;2023-03-21T04:14:27;18.80;;;8.25;;
20232;SDS011;37438;55.674;13.074;2023-03-21T04:17:46;13.50;;;7.00;;
20232;SDS011;37438;55.674;13.074;2023-03-21T04:20:50;16.60;;;5.72;;
20232;SDS011;37438;55.674;13.074;2023-03-21T04:23:55;19.83;;;6.85;;
20232;SDS011;37438;55.674;13.074;2023-03-21T04:27:00;22.40;;;7.75;;
20232;SDS011;37438;55.674;13.074;2023-03-21T04:30:37;54.15;;;7.97;;
20232;SDS011;37438;55.674;13.074;2023-03-21T04:33:49;98.55;;;9.43;;
20232;SDS011;37438;55.674;13.074;2023-03-21T04:36:53;27.30;;;5.40;;
20232;SDS011;37438;55.674;13.074;2023-03-21T04:43:03;33.10;;;6.13;;
20232;SDS011;37438;55.674;13.074;2023-03-21T04:46:07;40.67;;;5.57;;
20232;SDS011;37438;55.674;13.074;2023-03-21T04:49:12;36.93;;;7.33;;
20232;SDS011;37438;55.674;13.074;2023-03-21T04:52:18;28.80;;;7.40;;
20232;SDS011;37438;55.674;13.074;2023-03-21T04:55:23;45.20;;;6.78;;
20232;SDS011;37438;55.674;13.074;2023-03-21T04:58:30;34.50;;;5.90;;
20232;SDS011;37438;55.674;13.074;2023-03-21T05:01:35;47.63;;;5.55;;
20232;SDS011;37438;55.674;13.074;2023-03-21T05:07:45;31.35;;;4.38;;
20232;SDS011;37438;55.674;13.074;2023-03-21T05:10:49;45.05;;;4.57;;
20232;SDS011;37438;55.674;13.074;2023-03-21T05:13:54;64.32;;;5.55;;
20232;SDS011;37438;55.674;13.074;2023-03-21T05:16:59;26.58;;;4.78;;
20232;SDS011;37438;55.674;13.074;2023-03-21T05:20:09;21.85;;;4.35;;
20232;SDS011;37438;55.674;13.074;2023-03-21T05:23:14;52.78;;;5.07;;
20232;SDS011;37438;55.674;13.074;2023-03-21T05:26:21;42.20;;;4.50;;
20232;SDS011;37438;55.674;13.074;2023-03-21T05:29:35;50.63;;;4.78;;
20232;SDS011;37438;55.674;13.074;2023-03-21T05:32:41;23.23;;;4.25;;
20232;SDS011;37438;55.674;13.074;2023-03-21T05:35:50;69.78;;;5.32;;
20232;SDS011;37438;55.674;13.074;2023-03-21T05:38:56;86.78;;;6.45;;
20232;SDS011;37438;55.674;13.074;2023-03-21T05:42:00;80.28;;;6.55;;
20232;SDS011;37438;55.674;13.074;2023-03-21T05:45:05;98.32;;;6.97;;
20232;SDS011;37438;55.674;13.074;2023-03-21T05:48:11;50.53;;;6.13;;
20232;SDS011;37438;55.674;13.074;2023-03-21T05:51:33;49.25;;;5.85;;
20232;SDS011;37438;55.674;13.074;2023-03-21T05:54:38;54.15;;;5.75;;
20232;SDS011;37438;55.674;13.074;2023-03-21T05:57:42;72.57;;;6.70;;
20232;SDS011;37438;55.674;13.074;2023-03-21T06:00:54;67.30;;;5.97;;
20232;SDS011;37438;55.674;13.074;2023-03-21T06:04:06;46.00;;;5.40;;
20232;SDS011;37438;55.674;13.074;2023-03-21T06:10:17;66.63;;;5.32;;
20232;SDS011;37438;55.674;13.074;2023-03-21T06:13:24;60.00;;;5.07;;
20232;SDS011;37438;55.674;13.074;2023-03-21T06:16:29;72.65;;;5.68;;
20232;SDS011;37438;55.674;13.074;2023-03-21T06:19:33;91.03;;;6.90;;
20232;SDS011;37438;55.674;13.074;2023-03-21T06:22:45;57.95;;;5.65;;
20232;SDS011;37438;55.674;13.074;2023-03-21T06:25:50;87.97;;;6.20;;
20232;SDS011;37438;55.674;13.074;2023-03-21T06:28:54;54.92;;;5.75;;
20232;SDS011;37438;55.674;13.074;2023-03-21T06:31:59;86.70;;;6.13;;
20232;SDS011;37438;55.674;13.074;2023-03-21T06:35:04;87.13;;;4.78;;
20232;SDS011;37438;55.674;13.074;2023-03-21T06:38:09;46.60;;;6.50;;
20232;SDS011;37438;55.674;13.074;2023-03-21T06:41:15;86.30;;;6.43;;
20232;SDS011;37438;55.674;13.074;2023-03-21T06:44:27;57.72;;;6.28;;
20232;SDS011;37438;55.674;13.074;2023-03-21T06:47:39;40.25;;;5.97;;
20232;SDS011;37438;55.674;13.074;2023-03-21T06:50:52;54.28;;;5.95;;
20232;SDS011;37438;55.674;13.074;2023-03-21T06:53:59;26.70;;;4.93;;
20232;SDS011;37438;55.674;13.074;2023-03-21T06:57:14;39.83;;;5.00;;
20232;SDS011;37438;55.674;13.074;2023-03-21T07:00:21;33.17;;;5.15;;
20232;SDS011;37438;55.674;13.074;2023-03-21T07:03:27;45.30;;;7.35;;
20232;SDS011;37438;55.674;13.074;2023-03-21T07:06:36;25.83;;;6.05;;
20232;SDS011;37438;55.674;13.074;2023-03-21T07:09:41;54.72;;;5.82;;
20232;SDS011;37438;55.674;13.074;2023-03-21T07:12:46;43.65;;;4.97;;
20232;SDS011;37438;55.674;13.074;2023-03-21T07:15:59;51.95;;;6.65;;
20232;SDS011;37438;55.674;13.074;2023-03-21T07:19:04;39.03;;;6.45;;
20232;SDS011;37438;55.674;13.074;2023-03-21T07:22:09;50.78;;;5.90;;
20232;SDS011;37438;55.674;13.074;2023-03-21T07:25:13;55.65;;;7.20;;
20232;SDS011;37438;55.674;13.074;2023-03-21T07:28:20;49.53;;;6.60;;
20232;SDS011;37438;55.674;13.074;2023-03-21T07:31:26;103.93;;;8.90;;
20232;SDS011;37438;55.674;13.074;2023-03-21T07:34:32;50.72;;;6.47;;
20232;SDS011;37438;55.674;13.074;2023-03-21T07:37:39;92.55;;;6.35;;
20232;SDS011;37438;55.674;13.074;2023-03-21T07:40:44;137.57;;;10.73;;
20232;SDS011;37438;55.674;13.074;2023-03-21T07:43:49;101.93;;;7.28;;
20232;SDS011;37438;55.674;13.074;2023-03-21T07:46:54;59.17;;;6.70;;
20232;SDS011;37438;55.674;13.074;2023-03-21T07:50:01;72.25;;;7.15;;
20232;SDS011;37438;55.674;13.074;2023-03-21T07:53:07;43.10;;;5.70;;
20232;SDS011;37438;55.674;13.074;2023-03-21T07:56:12;186.43;;;11.95;;
20232;SDS011;37438;55.674;13.074;2023-03-21T07:59:17;111.47;;;6.45;;
20232;SDS011;37438;55.674;13.074;2023-03-21T08:02:21;60.07;;;7.03;;
20232;SDS011;37438;55.674;13.074;2023-03-21T08:05:27;86.68;;;6.63;;
20232;SDS011;37438;55.674;13.074;2023-03-21T08:08:42;65.53;;;7.75;;
20232;SDS011;37438;55.674;13.074;2023-03-21T08:11:46;78.97;;;10.07;;
20232;SDS011;37438;55.674;13.074;2023-03-21T08:14:50;37.05;;;6.22;;
20232;SDS011;37438;55.674;13.074;2023-03-21T08:17:55;72.73;;;6.53;;
20232;SDS011;37438;55.674;13.074;2023-03-21T08:21:02;21.88;;;7.38;;
20232;SDS011;37438;55.674;13.074;2023-03-21T08:24:06;44.97;;;8.20;;
20232;SDS011;37438;55.674;13.074;2023-03-21T08:27:11;28.88;;;7.68;;
20232;SDS011;37438;55.674;13.074;2023-03-21T08:30:20;15.73;;;6.30;;
20232;SDS011;37438;55.674;13.074;2023-03-21T08:33:25;29.98;;;6.47;;
20232;SDS011;37438;55.674;13.074;2023-03-21T08:36:30;16.20;;;6.57;;
20232;SDS011;37438;55.674;13.074;2023-03-21T08:39:35;17.05;;;5.80;;
20232;SDS011;37438;55.674;13.074;2023-03-21T08:42:40;24.25;;;6.25;;
20232;SDS011;37438;55.674;13.074;2023-03-21T08:45:45;19.73;;;7.60;;
20232;SDS011;37438;55.674;13.074;2023-03-21T08:48:50;19.00;;;7.65;;
20232;SDS011;37438;55.674;13.074;2023-03-21T08:51:55;19.98;;;7.80;;
20232;SDS011;37438;55.674;13.074;2023-03-21T08:54:59;19.67;;;8.32;;
20232;SDS011;37438;55.674;13.074;2023-03-21T08:58:05;16.17;;;7.60;;
20232;SDS011;37438;55.674;13.074;2023-03-21T09:01:10;19.95;;;8.70;;
20232;SDS011;37438;55.674;13.074;2023-03-21T09:04:18;14.88;;;7.07;;
20232;SDS011;37438;55.674;13.074;2023-03-21T09:07:24;13.15;;;7.55;;
20232;SDS011;37438;55.674;13.074;2023-03-21T09:10:29;14.13;;;6.68;;
20232;SDS011;37438;55.674;13.074;2023-03-21T09:13:33;13.02;;;6.80;;
20232;SDS011;37438;55.674;13.074;2023-03-21T09:16:38;15.98;;;6.93;;
20232;SDS011;37438;55.674;13.074;2023-03-21T09:19:42;8.50;;;5.15;;
20232;SDS011;37438;55.674;13.074;2023-03-21T09:25:52;7.40;;;4.60;;
20232;SDS011;37438;55.674;13.074;2023-03-21T09:28:57;11.65;;;5.88;;
20232;SDS011;37438;55.674;13.074;2023-03-21T09:32:04;10.30;;;5.88;;
20232;SDS011;37438;55.674;13.074;2023-03-21T09:35:09;12.23;;;6.40;;
20232;SDS011;37438;55.674;13.074;2023-03-21T09:38:15;8.98;;;5.45;;
20232;SDS011;37438;55.674;13.074;2023-03-21T09:48:11;11.05;;;6.82;;
20232;SDS011;37438;55.674;13.074;2023-03-21T09:51:26;11.13;;;7.22;;
20232;SDS011;37438;55.674;13.074;2023-03-21T09:54:35;14.65;;;8.10;;
20232;SDS011;37438;55.674;13.074;2023-03-21T09:57:43;15.38;;;7.97;;
20232;SDS011;37438;55.674;13.074;2023-03-21T10:00:51;12.82;;;7.20;;
20232;SDS011;37438;55.674;13.074;2023-03-21T10:04:04;10.48;;;6.30;;
20232;SDS011;37438;55.674;13.074;2023-03-21T10:07:12;11.25;;;7.03;;
20232;SDS011;37438;55.674;13.074;2023-03-21T10:10:26;8.32;;;6.28;;
20232;SDS011;37438;55.674;13.074;2023-03-21T10:13:32;7.55;;;5.60;;
20232;SDS011;37438;55.674;13.074;2023-03-21T10:16:40;11.88;;;6.57;;
20232;SDS011;37438;55.674;13.074;2023-03-21T10:19:54;11.75;;;8.05;;
20232;SDS011;37438;55.674;13.074;2023-03-21T10:23:18;13.13;;;6.13;;
20232;SDS011;37438;55.674;13.074;2023-03-21T10:26:26;15.20;;;7.18;;
20232;SDS011;37438;55.674;13.074;2023-03-21T10:29:37;12.93;;;7.28;;
20232;SDS011;37438;55.674;13.074;2023-03-21T10:32:47;17.60;;;9.25;;
20232;SDS011;37438;55.674;13.074;2023-03-21T10:42:04;14.55;;;8.82;;
20232;SDS011;37438;55.674;13.074;2023-03-21T10:45:13;16.05;;;9.52;;
20232;SDS011;37438;55.674;13.074;2023-03-21T10:48:22;16.50;;;8.75;;
20232;SDS011;37438;55.674;13.074;2023-03-21T10:51:32;15.32;;;8.85;;
20232;SDS011;37438;55.674;13.074;2023-03-21T10:54:40;16.83;;;10.07;;
20232;SDS011;37438;55.674;13.074;2023-03-21T10:57:45;19.85;;;8.98;;
20232;SDS011;37438;55.674;13.074;2023-03-21T11:00:53;17.10;;;9.95;;
20232;SDS011;37438;55.674;13.074;2023-03-21T11:04:15;18.92;;;10.43;;
20232;SDS011;37438;55.674;13.074;2023-03-21T11:07:27;24.17;;;12.27;;
20232;SDS011;37438;55.674;13.074;2023-03-21T11:10:49;25.80;;;12.27;;
20232;SDS011;37438;55.674;13.074;2023-03-21T11:14:05;27.90;;;12.20;;
20232;SDS011;37438;55.674;13.074;2023-03-21T11:20:19;27.02;;;11.50;;
20232;SDS011;37438;55.674;13.074;2023-03-21T11:23:25;27.02;;;12.10;;
20232;SDS011;37438;55.674;13.074;2023-03-21T11:26:35;27.27;;;10.50;;
20232;SDS011;37438;55.674;13.074;2023-03-21T11:29:44;36.22;;;13.05;;
20232;SDS011;37438;55.674;13.074;2023-03-21T11:32:55;28.48;;;12.38;;
20232;SDS011;37438;55.674;13.074;2023-03-21T11:36:03;37.60;;;14.90;;
20232;SDS011;37438;55.674;13.074;2023-03-21T11:42:30;37.00;;;14.25;;
20232;SDS011;37438;55.674;13.074;2023-03-21T11:45:35;42.03;;;14.27;;
20232;SDS011;37438;55.674;13.074;2023-03-21T11:48:43;33.95;;;12.45;;
20232;SDS011;37438;55.674;13.074;2023-03-21T11:52:05;35.80;;;11.35;;
20232;SDS011;37438;55.674;13.074;2023-03-21T11:55:29;34.10;;;12.13;;
20232;SDS011;37438;55.674;13.074;2023-03-21T12:05:59;31.80;;;11.10;;
20232;SDS011;37438;55.674;13.074;2023-03-21T12:09:22;35.30;;;12.13;;
20232;SDS011;37438;55.674;13.074;2023-03-21T12:33:07;27.42;;;11.55;;
20232;SDS011;37438;55.674;13.074;2023-03-21T12:39:41;24.15;;;9.68;;
20232;SDS011;37438;55.674;13.074;2023-03-21T12:42:56;18.02;;;8.77;;
20232;SDS011;37438;55.674;13.074;2023-03-21T12:46:31;19.10;;;8.43;;
20232;SDS011;37438;55.674;13.074;2023-03-21T12:49:45;18.70;;;9.48;;
20232;SDS011;37438;55.674;13.074;2023-03-21T12:53:13;18.67;;;9.07;;
20232;SDS011;37438;55.674;13.074;2023-03-21T12:56:56;14.30;;;8.35;;
20232;SDS011;37438;55.674;13.074;2023-03-21T13:00:04;14.90;;;8.35;;
20232;SDS011;37438;55.674;13.074;2023-03-21T13:03:22;14.73;;;7.78;;
20232;SDS011;37438;55.674;13.074;2023-03-21T13:06:43;13.82;;;8.35;;
20232;SDS011;37438;55.674;13.074;2023-03-21T13:09:50;17.95;;;9.85;;
20232;SDS011;37438;55.674;13.074;2023-03-21T13:16:38;18.13;;;10.23;;
20232;SDS011;37438;55.674;13.074;2023-03-21T13:20:07;23.77;;;12.00;;
20232;SDS011;37438;55.674;13.074;2023-03-21T13:23:36;18.35;;;9.80;;
20232;SDS011;37438;55.674;13.074;2023-03-21T13:26:44;27.00;;;12.18;;
20232;SDS011;37438;55.674;13.074;2023-03-21T13:29:53;25.33;;;13.38;;
20232;SDS011;37438;55.674;13.074;2023-03-21T13:33:06;24.65;;;13.20;;
20232;SDS011;37438;55.674;13.074;2023-03-21T13:36:17;30.70;;;16.13;;
20232;SDS011;37438;55.674;13.074;2023-03-21T13:39:30;28.00;;;13.55;;
20232;SDS011;37438;55.674;13.074;2023-03-21T13:42:39;39.80;;;20.75;;
20232;SDS011;37438;55.674;13.074;2023-03-21T13:45:51;38.47;;;18.73;;
20232;SDS011;37438;55.674;13.074;2023-03-21T13:55:15;55.05;;;22.80;;
20232;SDS011;37438;55.674;13.074;2023-03-21T13:58:40;56.00;;;25.33;;
20232;SDS011;37438;55.674;13.074;2023-03-21T14:01:59;58.45;;;26.08;;
20232;SDS011;37438;55.674;13.074;2023-03-21T14:05:15;57.17;;;27.15;;
20232;SDS011;37438;55.674;13.074;2023-03-21T14:08:23;57.70;;;25.80;;
20232;SDS011;37438;55.674;13.074;2023-03-21T14:11:40;64.18;;;29.02;;
20232;SDS011;37438;55.674;13.074;2023-03-21T14:14:51;60.70;;;27.60;;
20232;SDS011;37438;55.674;13.074;2023-03-21T14:18:20;48.40;;;25.55;;
20232;SDS011;37438;55.674;13.074;2023-03-21T14:21:45;52.65;;;27.27;;
20232;SDS011;37438;55.674;13.074;2023-03-21T14:24:59;58.58;;;29.25;;
20232;SDS011;37438;55.674;13.074;2023-03-21T14:28:06;53.40;;;24.50;;
20232;SDS011;37438;55.674;13.074;2023-03-21T14:31:17;55.00;;;28.05;;
20232;SDS011;37438;55.674;13.074;2023-03-21T14:34:22;49.45;;;24.92;;
20232;SDS011;37438;55.674;13.074;2023-03-21T14:37:36;55.60;;;27.02;;
20232;SDS011;37438;55.674;13.074;2023-03-21T14:40:46;50.85;;;26.35;;
20232;SDS011;37438;55.674;13.074;2023-03-21T14:44:02;49.95;;;25.38;;
20232;SDS011;37438;55.674;13.074;2023-03-21T14:47:30;50.00;;;25.58;;
20232;SDS011;37438;55.674;13.074;2023-03-21T14:51:09;45.03;;;23.45;;
20232;SDS011;37438;55.674;13.074;2023-03-21T14:54:15;44.38;;;22.80;;
20232;SDS011;37438;55.674;13.074;2023-03-21T14:57:22;41.60;;;23.52;;
20232;SDS011;37438;55.674;13.074;2023-03-21T15:00:30;41.65;;;22.95;;
20232;SDS011;37438;55.674;13.074;2023-03-21T15:03:36;43.65;;;25.00;;
20232;SDS011;37438;55.674;13.074;2023-03-21T15:06:47;42.45;;;23.48;;
20232;SDS011;37438;55.674;13.074;2023-03-21T15:09:55;36.00;;;23.58;;
20232;SDS011;37438;55.674;13.074;2023-03-21T15:13:09;36.00;;;22.38;;
20232;SDS011;37438;55.674;13.074;2023-03-21T15:16:15;39.38;;;23.10;;
20232;SDS011;37438;55.674;13.074;2023-03-21T15:22:31;42.80;;;24.92;;
20232;SDS011;37438;55.674;13.074;2023-03-21T15:25:40;36.35;;;22.23;;
20232;SDS011;37438;55.674;13.074;2023-03-21T15:28:47;45.60;;;24.92;;
20232;SDS011;37438;55.674;13.074;2023-03-21T15:31:53;39.42;;;22.25;;
20232;SDS011;37438;55.674;13.074;2023-03-21T15:35:05;35.08;;;20.58;;
20232;SDS011;37438;55.674;13.074;2023-03-21T15:45:30;39.78;;;21.17;;
20232;SDS011;37438;55.674;13.074;2023-03-21T15:48:34;31.35;;;20.52;;
20232;SDS011;37438;55.674;13.074;2023-03-21T15:51:40;32.65;;;19.00;;
20232;SDS011;37438;55.674;13.074;2023-03-21T15:54:47;36.40;;;18.88;;
20232;SDS011;37438;55.674;13.074;2023-03-21T15:57:59;35.78;;;20.27;;
20232;SDS011;37438;55.674;13.074;2023-03-21T16:01:09;29.52;;;17.15;;
20232;SDS011;37438;55.674;13.074;2023-03-21T16:04:25;24.33;;;16.63;;
20232;SDS011;37438;55.674;13.074;2023-03-21T16:07:32;28.88;;;16.63;;
20232;SDS011;37438;55.674;13.074;2023-03-21T16:10:38;25.85;;;16.35;;
20232;SDS011;37438;55.674;13.074;2023-03-21T16:13:42;26.00;;;16.48;;
20232;SDS011;37438;55.674;13.074;2023-03-21T16:16:47;24.92;;;15.45;;
20232;SDS011;37438;55.674;13.074;2023-03-21T16:22:57;19.85;;;13.93;;
20232;SDS011;37438;55.674;13.074;2023-03-21T16:26:01;20.75;;;14.20;;
20232;SDS011;37438;55.674;13.074;2023-03-21T16:29:09;22.45;;;15.32;;
20232;SDS011;37438;55.674;13.074;2023-03-21T16:32:15;23.80;;;14.35;;
20232;SDS011;37438;55.674;13.074;2023-03-21T16:35:21;22.52;;;15.25;;
20232;SDS011;37438;55.674;13.074;2023-03-21T16:38:27;25.40;;;13.88;;
20232;SDS011;37438;55.674;13.074;2023-03-21T16:41:32;23.50;;;14.52;;
20232;SDS011;37438;55.674;13.074;2023-03-21T16:47:42;24.30;;;14.20;;
20232;SDS011;37438;55.674;13.074;2023-03-21T16:50:47;18.83;;;12.73;;
20232;SDS011;37438;55.674;13.074;2023-03-21T16:53:52;22.55;;;13.52;;
20232;SDS011;37438;55.674;13.074;2023-03-21T16:56:56;19.85;;;12.90;;
20232;SDS011;37438;55.674;13.074;2023-03-21T17:00:03;16.17;;;11.50;;
20232;SDS011;37438;55.674;13.074;2023-03-21T17:03:14;17.63;;;12.35;;
20232;SDS011;37438;55.674;13.074;2023-03-21T17:06:23;18.08;;;10.95;;
20232;SDS011;37438;55.674;13.074;2023-03-21T17:09:29;17.67;;;12.27;;
20232;SDS011;37438;55.674;13.074;2023-03-21T17:12:33;20.02;;;13.43;;
20232;SDS011;37438;55.674;13.074;2023-03-21T17:15:38;18.80;;;12.40;;
20232;SDS011;37438;55.674;13.074;2023-03-21T17:18:44;18.00;;;11.98;;
20232;SDS011;37438;55.674;13.074;2023-03-21T17:21:48;17.63;;;12.07;;
20232;SDS011;37438;55.674;13.074;2023-03-21T17:24:53;18.85;;;12.02;;
20232;SDS011;37438;55.674;13.074;2023-03-21T17:27:57;18.88;;;13.07;;
20232;SDS011;37438;55.674;13.074;2023-03-21T17:31:02;21.70;;;13.35;;
20232;SDS011;37438;55.674;13.074;2023-03-21T17:34:07;22.48;;;13.13;;
20232;SDS011;37438;55.674;13.074;2023-03-21T17:37:12;17.27;;;11.55;;
20232;SDS011;37438;55.674;13.074;2023-03-21T17:40:21;13.70;;;8.82;;
20232;SDS011;37438;55.674;13.074;2023-03-21T17:43:33;19.75;;;12.40;;
20232;SDS011;37438;55.674;13.074;2023-03-21T17:46:38;18.63;;;11.45;;
20232;SDS011;37438;55.674;13.074;2023-03-21T17:52:48;14.82;;;10.02;;
20232;SDS011;37438;55.674;13.074;2023-03-21T17:55:54;16.58;;;12.00;;
20232;SDS011;37438;55.674;13.074;2023-03-21T17:59:10;16.45;;;10.93;;
20232;SDS011;37438;55.674;13.074;2023-03-21T18:02:16;17.67;;;12.63;;
20232;SDS011;37438;55.674;13.074;2023-03-21T18:05:21;14.38;;;11.18;;
20232;SDS011;37438;55.674;13.074;2023-03-21T18:08:28;17.05;;;11.10;;
20232;SDS011;37438;55.674;13.074;2023-03-21T18:11:32;17.52;;;11.23;;
20232;SDS011;37438;55.674;13.074;2023-03-21T18:14:36;16.95;;;11.93;;
20232;SDS011;37438;55.674;13.074;2023-03-21T18:17:43;19.52;;;13.38;;
20232;SDS011;37438;55.674;13.074;2023-03-21T18:20:47;16.38;;;11.43;;
20232;SDS011;37438;55.674;13.074;2023-03-21T18:23:56;19.33;;;12.40;;
20232;SDS011;37438;55.674;13.074;2023-03-21T18:27:00;13.57;;;8.73;;
20232;SDS011;37438;55.674;13.074;2023-03-21T18:33:33;18.63;;;12.43;;
20232;SDS011;37438;55.674;13.074;2023-03-21T18:36:39;27.38;;;16.17;;
20232;SDS011;37438;55.674;13.074;2023-03-21T18:39:45;23.23;;;15.27;;
20232;SDS011;37438;55.674;13.074;2023-03-21T18:42:51;24.05;;;14.50;;
20232;SDS011;37438;55.674;13.074;2023-03-21T18:46:16;19.33;;;12.90;;
20232;SDS011;37438;55.674;13.074;2023-03-21T18:52:46;20.13;;;12.73;;
20232;SDS011;37438;55.674;13.074;2023-03-21T18:55:50;14.10;;;8.95;;
20232;SDS011;37438;55.674;13.074;2023-03-21T18:58:55;13.90;;;9.98;;
20232;SDS011;37438;55.674;13.074;2023-03-21T19:02:00;19.10;;;10.15;;
20232;SDS011;37438;55.674;13.074;2023-03-21T19:05:05;21.20;;;13.68;;
20232;SDS011;37438;55.674;13.074;2023-03-21T19:08:10;23.77;;;13.45;;
20232;SDS011;37438;55.674;13.074;2023-03-21T19:11:14;22.50;;;14.13;;
20232;SDS011;37438;55.674;13.074;2023-03-21T19:14:23;24.20;;;14.27;;
20232;SDS011;37438;55.674;13.074;2023-03-21T19:20:53;20.35;;;13.27;;
20232;SDS011;37438;55.674;13.074;2023-03-21T19:23:57;20.38;;;12.60;;
20232;SDS011;37438;55.674;13.074;2023-03-21T19:27:22;15.67;;;9.60;;
20232;SDS011;37438;55.674;13.074;2023-03-21T19:30:26;20.58;;;12.88;;
20232;SDS011;37438;55.674;13.074;2023-03-21T19:33:31;22.10;;;12.98;;
20232;SDS011;37438;55.674;13.074;2023-03-21T19:36:35;18.80;;;12.60;;
20232;SDS011;37438;55.674;13.074;2023-03-21T19:39:39;20.65;;;13.57;;
20232;SDS011;37438;55.674;13.074;2023-03-21T19:42:44;20.95;;;12.65;;
20232;SDS011;37438;55.674;13.074;2023-03-21T19:45:49;22.23;;;13.77;;
20232;SDS011;37438;55.674;13.074;2023-03-21T19:48:55;20.85;;;13.45;;
20232;SDS011;37438;55.674;13.074;2023-03-21T19:52:00;19.77;;;12.32;;
20232;SDS011;37438;55.674;13.074;2023-03-21T19:55:04;21.67;;;12.82;;
20232;SDS011;37438;55.674;13.074;2023-03-21T20:01:14;23.13;;;14.77;;
20232;SDS011;37438;55.674;13.074;2023-03-21T20:07:23;23.88;;;13.95;;
20232;SDS011;37438;55.674;13.074;2023-03-21T20:10:28;24.52;;;14.20;;
20232;SDS011;37438;55.674;13.074;2023-03-21T20:13:33;24.92;;;15.95;;
20232;SDS011;37438;55.674;13.074;2023-03-21T20:16:37;24.13;;;15.77;;
20232;SDS011;37438;55.674;13.074;2023-03-21T20:19:46;27.08;;;15.55;;
20232;SDS011;37438;55.674;13.074;2023-03-21T20:22:51;25.83;;;13.93;;